createdAt,value
2022-09-20T00:00:34.902Z,99150.94
2022-09-20T00:03:44.691Z,99152.78
2022-09-20T00:06:46.478Z,99151.28
2022-09-20T00:09:48.188Z,99156.31
2022-09-20T00:12:50.128Z,99151.91
2022-09-20T00:15:51.834Z,99151.28
2022-09-20T00:18:55.843Z,99148.41
2022-09-20T00:21:57.565Z,99153.81
2022-09-20T00:24:59.246Z,99151.66
2022-09-20T00:28:01.263Z,99140.31
2022-09-20T00:31:02.954Z,99151.66
2022-09-20T00:34:23.190Z,99145.00
2022-09-20T00:37:25.010Z,99152.38
2022-09-20T00:40:30.406Z,99141.22
2022-09-20T00:43:43.945Z,99136.22
2022-09-20T00:46:46.066Z,99146.56
2022-09-20T00:49:49.809Z,99143.06
2022-09-20T00:53:07.859Z,99151.06
2022-09-20T00:56:15.963Z,99148.28
2022-09-20T00:59:37.530Z,99151.91
2022-09-20T01:02:44.468Z,99157.09
2022-09-20T01:05:46.263Z,99151.25
2022-09-20T01:08:51.683Z,99159.94
2022-09-20T01:11:56.161Z,99156.78
2022-09-20T01:15:00.630Z,99158.50
2022-09-20T01:18:03.480Z,99150.44
2022-09-20T01:21:07.327Z,99161.28
2022-09-20T01:24:25.034Z,99153.13
2022-09-20T01:27:46.774Z,99153.94
2022-09-20T01:30:52.184Z,99155.63
2022-09-20T01:34:06.941Z,99159.13
2022-09-20T01:37:31.779Z,99153.16
2022-09-20T01:40:46.688Z,99163.16
2022-09-20T01:43:55.249Z,99168.00
2022-09-20T01:47:05.855Z,99165.03
2022-09-20T01:50:22.768Z,99162.03
2022-09-20T01:53:48.412Z,99163.19
2022-09-20T01:57:08.466Z,99157.88
2022-09-20T02:00:49.282Z,99152.91
2022-09-20T02:04:17.304Z,99153.03
2022-09-20T02:07:38.258Z,99151.75
2022-09-20T02:11:14.164Z,99145.41
2022-09-20T02:14:44.093Z,99148.78
2022-09-20T02:18:00.743Z,99146.59
2022-09-20T02:21:35.850Z,99153.78
2022-09-20T02:24:56.195Z,99152.25
2022-09-20T02:28:31.782Z,99154.09
2022-09-20T02:31:58.374Z,99151.25
2022-09-20T02:35:10.777Z,99146.28
2022-09-20T02:38:18.586Z,99136.78
2022-09-20T02:41:54.289Z,99154.09
2022-09-20T02:45:34.116Z,99163.13
2022-09-20T02:48:59.662Z,99156.09
2022-09-20T02:52:16.830Z,99153.13
2022-09-20T02:55:56.163Z,99161.78
2022-09-20T02:59:14.040Z,99164.94
2022-09-20T03:02:34.078Z,99158.13
2022-09-20T03:05:47.545Z,99165.44
2022-09-20T03:09:01.652Z,99165.41
2022-09-20T03:12:23.041Z,99158.38
2022-09-20T03:15:54.836Z,99161.84
2022-09-20T03:19:44.566Z,99155.81
2022-09-20T03:23:10.813Z,99163.31
2022-09-20T03:26:48.719Z,99160.78
2022-09-20T03:30:16.193Z,99168.97
2022-09-20T03:33:37.416Z,99163.16
2022-09-20T03:36:53.080Z,99158.00
2022-09-20T03:40:32.506Z,99164.34
2022-09-20T03:43:49.335Z,99168.84
2022-09-20T03:47:03.801Z,99174.63
2022-09-20T03:50:31.172Z,99175.16
2022-09-20T03:53:39.995Z,99178.50
2022-09-20T03:57:00.363Z,99183.50
2022-09-20T04:00:35.460Z,99179.66
2022-09-20T04:04:14.677Z,99181.16
2022-09-20T04:07:39.061Z,99185.16
2022-09-20T04:10:50.561Z,99186.47
2022-09-20T04:14:04.458Z,99185.47
2022-09-20T04:17:25.493Z,99184.44
2022-09-20T04:20:46.218Z,99185.91
2022-09-20T04:24:00.923Z,99187.22
2022-09-20T04:27:11.833Z,99187.22
2022-09-20T04:30:24.219Z,99200.38
2022-09-20T04:33:35.075Z,99196.56
2022-09-20T04:36:56.199Z,99203.06
2022-09-20T04:40:09.903Z,99204.06
2022-09-20T04:43:33.523Z,99206.59
2022-09-20T04:46:41.319Z,99214.41
2022-09-20T04:50:22.197Z,99214.91
2022-09-20T04:53:57.405Z,99218.22
2022-09-20T04:57:11.449Z,99219.38
2022-09-20T05:00:21.465Z,99225.06
2022-09-20T05:03:46.005Z,99213.91
2022-09-20T05:07:26.424Z,99223.06
2022-09-20T05:10:42.338Z,99238.41
2022-09-20T05:14:03.540Z,99226.22
2022-09-20T05:17:21.566Z,99238.91
2022-09-20T05:20:26.352Z,99239.41
2022-09-20T05:23:40.872Z,99236.91
2022-09-20T05:27:04.410Z,99236.22
2022-09-20T05:30:24.397Z,99239.53
2022-09-20T05:33:53.786Z,99249.72
2022-09-20T05:37:17.451Z,99255.53
2022-09-20T05:40:39.503Z,99261.19
2022-09-20T05:44:25.251Z,99259.84
2022-09-20T05:47:44.946Z,99262.00
2022-09-20T05:51:01.891Z,99261.19
2022-09-20T05:54:27.605Z,99259.78
2022-09-20T05:58:01.671Z,99264.81
2022-09-20T06:01:21.539Z,99266.59
2022-09-20T06:04:37.079Z,99269.38
2022-09-20T06:08:03.721Z,99270.69
2022-09-20T06:12:02.914Z,99271.03
2022-09-20T06:15:15.220Z,99277.34
2022-09-20T06:18:26.190Z,99280.69
2022-09-20T06:21:50.769Z,99286.03
2022-09-20T06:25:08.462Z,99295.66
2022-09-20T06:28:21.466Z,99291.28
2022-09-20T06:31:23.223Z,99288.09
2022-09-20T06:34:27.004Z,99281.44
2022-09-20T06:37:54.102Z,99282.31
2022-09-20T06:41:14.760Z,99281.47
2022-09-20T06:44:16.560Z,99279.16
2022-09-20T06:47:18.770Z,99280.69
2022-09-20T06:50:20.528Z,99289.88
2022-09-20T06:53:32.555Z,99284.81
2022-09-20T06:56:36.918Z,99290.78
2022-09-20T06:59:38.754Z,99288.25
2022-09-20T07:02:40.659Z,99283.59
2022-09-20T07:05:42.429Z,99290.84
2022-09-20T07:08:44.179Z,99288.25
2022-09-20T07:11:46.223Z,99291.25
2022-09-20T07:14:48.006Z,99284.25
2022-09-20T07:17:51.094Z,99286.59
2022-09-20T07:20:52.859Z,99302.19
2022-09-20T07:23:54.756Z,99293.63
2022-09-20T07:27:01.392Z,99296.88
2022-09-20T07:30:03.414Z,99297.47
2022-09-20T07:33:05.092Z,99301.63
2022-09-20T07:36:07.074Z,99302.78
2022-09-20T07:39:09.550Z,99296.94
2022-09-20T07:42:12.070Z,99304.13
2022-09-20T07:45:13.995Z,99304.03
2022-09-20T07:48:16.195Z,99313.28
2022-09-20T07:51:20.896Z,99307.91
2022-09-20T07:54:22.711Z,99313.78
2022-09-20T07:57:24.565Z,99304.56
2022-09-20T08:00:26.666Z,99310.00
2022-09-20T08:03:33.080Z,99305.97
2022-09-20T08:06:39.556Z,99301.88
2022-09-20T08:09:41.632Z,99305.41
2022-09-20T08:16:08.174Z,99307.22
2022-09-20T08:19:15.917Z,99309.75
2022-09-20T08:22:17.743Z,99294.91
2022-09-20T08:25:19.431Z,99317.94
2022-09-20T08:28:21.197Z,99308.38
2022-09-20T08:31:26.022Z,99314.28
2022-09-20T08:34:28.049Z,99307.94
2022-09-20T08:37:30.320Z,99318.94
2022-09-20T08:40:32.380Z,99311.84
2022-09-20T08:43:48.792Z,99316.00
2022-09-20T08:47:01.706Z,99322.44
2022-09-20T08:50:11.543Z,99319.44
2022-09-20T08:53:20.922Z,99313.59
2022-09-20T08:56:28.036Z,99312.50
2022-09-20T08:59:31.428Z,99318.97
2022-09-20T09:02:34.695Z,99314.75
2022-09-20T09:05:40.907Z,99312.94
2022-09-20T09:08:49.493Z,99308.13
2022-09-20T09:11:53.055Z,99296.81
2022-09-20T09:14:59.649Z,99301.91
2022-09-20T09:18:01.545Z,99294.03
2022-09-20T09:21:07.718Z,99292.09
2022-09-20T09:24:20.508Z,99289.22
2022-09-20T09:27:22.232Z,99280.41
2022-09-20T09:30:26.480Z,99275.84
2022-09-20T09:33:30.075Z,99276.06
2022-09-20T09:36:32.910Z,99275.25
2022-09-20T09:39:38.568Z,99277.31
2022-09-20T09:42:56.244Z,99265.06
2022-09-20T09:46:25.373Z,99265.19
2022-09-20T09:49:36.031Z,99264.13
2022-09-20T09:52:38.046Z,99255.34
2022-09-20T09:55:52.725Z,99249.56
2022-09-20T09:59:13.103Z,99248.13
2022-09-20T10:02:36.178Z,99246.88
2022-09-20T10:06:08.791Z,99246.00
2022-09-20T10:09:30.738Z,99238.16
2022-09-20T10:12:50.401Z,99230.66
2022-09-20T10:16:07.645Z,99239.38
2022-09-20T10:19:17.487Z,99234.72
2022-09-20T10:22:29.113Z,99234.53
2022-09-20T10:25:33.869Z,99232.53
2022-09-20T10:28:54.152Z,99227.88
2022-09-20T10:33:00.940Z,99228.97
2022-09-20T10:36:25.413Z,99229.84
2022-09-20T10:39:41.192Z,99226.09
2022-09-20T10:43:09.473Z,99229.75
2022-09-20T10:46:40.618Z,99255.28
2022-09-20T10:50:07.970Z,99268.09
2022-09-20T10:53:28.811Z,99264.28
2022-09-20T10:56:37.542Z,99276.88
2022-09-20T10:59:47.271Z,99269.19
2022-09-20T11:03:16.484Z,99261.09
2022-09-20T11:06:21.408Z,99260.50
2022-09-20T11:09:29.565Z,99258.84
2022-09-20T11:12:52.886Z,99267.47
2022-09-20T11:16:02.989Z,99276.19
2022-09-20T11:19:49.819Z,99269.03
2022-09-20T11:23:00.033Z,99269.44
2022-09-20T11:26:12.924Z,99272.31
2022-09-20T11:29:26.295Z,99277.31
2022-09-20T11:33:11.369Z,99312.94
2022-09-20T11:36:24.817Z,99304.63
2022-09-20T11:39:50.649Z,99337.78
2022-09-20T11:42:53.386Z,99328.94
2022-09-20T11:46:00.838Z,99334.81
2022-09-20T11:49:13.575Z,99333.34
2022-09-20T11:52:37.187Z,99336.84
2022-09-20T11:55:59.062Z,99340.28
2022-09-20T11:59:03.910Z,99334.19
2022-09-20T12:02:35.586Z,99327.91
2022-09-20T12:05:42.334Z,99326.63
2022-09-20T12:08:50.615Z,99322.59
2022-09-20T12:11:53.056Z,99327.25
2022-09-20T12:15:00.323Z,99320.06
2022-09-20T12:18:27.053Z,99322.59
2022-09-20T12:21:29.043Z,99296.88
2022-09-20T12:24:36.771Z,99295.28
2022-09-20T12:27:38.412Z,99285.59
2022-09-20T12:30:40.119Z,99283.22
2022-09-20T12:34:02.143Z,99263.31
2022-09-20T12:37:05.121Z,99272.91
2022-09-20T12:40:16.046Z,99269.72
2022-09-20T12:43:21.645Z,99272.63
2022-09-20T12:46:32.767Z,99273.53
2022-09-20T12:50:00.735Z,99275.94
2022-09-20T12:53:05.443Z,99285.47
2022-09-20T12:56:07.925Z,99289.78
2022-09-20T12:59:24.272Z,99289.03
2022-09-20T13:03:10.211Z,99292.56
2022-09-20T13:06:16.394Z,99297.16
2022-09-20T13:09:19.116Z,99306.72
2022-09-20T13:12:21.270Z,99301.16
2022-09-20T13:15:23.337Z,99297.63
2022-09-20T13:18:27.927Z,99296.28
2022-09-20T13:21:31.110Z,99300.50
2022-09-20T13:24:42.094Z,99298.03
2022-09-20T13:28:06.679Z,99313.69
2022-09-20T13:31:20.393Z,99327.34
2022-09-20T13:34:24.429Z,99355.88
2022-09-20T13:37:26.198Z,99374.44
2022-09-20T13:40:43.201Z,99374.09
2022-09-20T13:43:49.963Z,99366.13
2022-09-20T13:46:51.722Z,99354.72
2022-09-20T13:49:59.878Z,99362.03
2022-09-20T13:53:27.892Z,99348.09
2022-09-20T13:56:35.748Z,99350.03
2022-09-20T13:59:44.954Z,99340.63
2022-09-20T14:02:49.375Z,99326.06
2022-09-20T14:05:59.342Z,99318.22
2022-09-20T14:09:08.401Z,99309.56
2022-09-20T14:12:14.069Z,99306.53
2022-09-20T14:15:15.956Z,99305.94
2022-09-20T14:18:20.102Z,99302.13
2022-09-20T14:21:25.513Z,99303.91
2022-09-20T14:24:35.480Z,99303.84
2022-09-20T14:27:37.279Z,99301.75
2022-09-20T14:30:38.950Z,99301.16
2022-09-20T14:33:54.975Z,99303.00
2022-09-20T14:37:07.065Z,99294.44
2022-09-20T14:40:17.650Z,99304.13
2022-09-20T14:43:25.987Z,99300.19
2022-09-20T14:46:38.918Z,99297.47
2022-09-20T14:49:44.369Z,99297.75
2022-09-20T14:52:46.194Z,99294.88
2022-09-20T14:56:11.719Z,99296.19
2022-09-20T14:59:28.572Z,99295.63
2022-09-20T15:02:30.235Z,99294.69
2022-09-20T15:05:32.305Z,99289.97
2022-09-20T15:08:35.455Z,99297.75
2022-09-20T15:11:37.194Z,99295.34
2022-09-20T15:14:40.872Z,99302.28
2022-09-20T15:17:43.030Z,99310.38
2022-09-20T15:20:44.732Z,99313.44
2022-09-20T15:23:46.484Z,99304.94
2022-09-20T15:26:48.786Z,99309.84
2022-09-20T15:29:50.618Z,99316.50
2022-09-20T15:32:52.715Z,99315.53
2022-09-20T15:35:54.477Z,99314.91
2022-09-20T15:38:56.456Z,99318.88
2022-09-20T15:41:58.201Z,99313.72
2022-09-20T15:44:59.902Z,99322.75
2022-09-20T15:48:03.089Z,99326.63
2022-09-20T15:51:07.479Z,99320.25
2022-09-20T15:54:15.012Z,99327.81
2022-09-20T15:57:17.645Z,99327.84
2022-09-20T16:00:19.863Z,99323.19
2022-09-20T16:03:28.895Z,99331.66
2022-09-20T16:06:32.074Z,99338.78
2022-09-20T16:09:35.828Z,99345.78
2022-09-20T16:12:37.676Z,99357.84
2022-09-20T16:15:39.455Z,99358.72
2022-09-20T16:19:00.172Z,99370.94
2022-09-20T16:22:01.958Z,99374.97
2022-09-20T16:25:05.993Z,99380.09
2022-09-20T16:28:07.714Z,99393.09
2022-09-20T16:31:32.904Z,99416.75
2022-09-20T16:34:36.695Z,99424.75
2022-09-20T16:37:39.394Z,99435.97
2022-09-20T16:40:41.373Z,99434.78
2022-09-20T16:43:43.076Z,99443.34
2022-09-20T16:46:47.540Z,99450.16
2022-09-20T16:49:53.640Z,99463.16
2022-09-20T16:52:55.853Z,99460.31
2022-09-20T16:55:57.551Z,99474.94
2022-09-20T16:59:01.114Z,99478.38
2022-09-20T17:02:02.886Z,99477.69
2022-09-20T17:05:05.384Z,99464.84
2022-09-20T17:08:07.121Z,99469.34
2022-09-20T17:11:11.539Z,99471.50
2022-09-20T17:14:15.003Z,99461.81
2022-09-20T17:17:17.240Z,99469.78
2022-09-20T17:20:18.983Z,99456.44
2022-09-20T17:23:21.169Z,99459.22
2022-09-20T17:26:24.646Z,99466.16
2022-09-20T17:29:27.626Z,99476.47
2022-09-20T17:32:29.406Z,99478.78
2022-09-20T17:35:31.387Z,99473.78
2022-09-20T17:38:34.670Z,99484.38
2022-09-20T17:41:37.413Z,99485.53
2022-09-20T17:44:39.166Z,99490.81
2022-09-20T17:47:42.147Z,99497.28
2022-09-20T17:50:54.315Z,99496.94
2022-09-20T17:53:56.416Z,99506.78
2022-09-20T17:56:58.132Z,99505.09
2022-09-20T17:59:59.844Z,99506.09
2022-09-20T18:03:04.756Z,99508.94
2022-09-20T18:06:23.137Z,99510.16
2022-09-20T18:09:27.139Z,99522.78
2022-09-20T18:12:29.627Z,99526.81
2022-09-20T18:15:32.135Z,99531.38
2022-09-20T18:18:33.904Z,99530.22
2022-09-20T18:21:37.498Z,99537.53
2022-09-20T18:24:39.399Z,99539.97
2022-09-20T18:27:42.161Z,99537.91
2022-09-20T18:30:46.285Z,99542.34
2022-09-20T18:33:48.030Z,99543.09
2022-09-20T18:36:55.030Z,99542.34
2022-09-20T18:39:56.713Z,99553.03
2022-09-20T18:43:04.519Z,99550.97
2022-09-20T18:46:06.660Z,99556.34
2022-09-20T18:49:09.622Z,99560.28
2022-09-20T18:52:13.098Z,99567.19
2022-09-20T18:55:14.948Z,99571.28
2022-09-20T18:58:20.760Z,99570.06
2022-09-20T19:01:28.547Z,99572.00
2022-09-20T19:04:39.068Z,99578.63
2022-09-20T19:07:45.807Z,99567.44
2022-09-20T19:11:01.234Z,99576.69
2022-09-20T19:14:22.022Z,99578.25
2022-09-20T19:17:40.880Z,99578.69
2022-09-20T19:20:54.188Z,99579.97
2022-09-20T19:24:33.344Z,99580.13
2022-09-20T19:27:35.396Z,99573.22
2022-09-20T19:30:39.479Z,99569.72
2022-09-20T19:33:41.472Z,99568.16
2022-09-20T19:36:49.143Z,99563.84
2022-09-20T19:40:15.342Z,99574.84
2022-09-20T19:43:47.783Z,99575.16
2022-09-20T19:47:24.901Z,99574.72
2022-09-20T19:50:36.180Z,99573.94
2022-09-20T19:53:39.294Z,99568.84
2022-09-20T19:56:44.084Z,99573.28
2022-09-20T19:59:46.428Z,99563.03
2022-09-20T20:02:49.088Z,99570.72
2022-09-20T20:06:08.310Z,99575.44
2022-09-20T20:09:23.387Z,99573.16
2022-09-20T20:12:34.139Z,99577.34
2022-09-20T20:15:50.606Z,99578.47
2022-09-20T20:19:21.114Z,99577.38
2022-09-20T20:23:08.657Z,99593.34
2022-09-20T20:26:19.434Z,99580.66
2022-09-20T20:29:21.169Z,99594.53
2022-09-20T20:32:23.040Z,99593.00
2022-09-20T20:35:25.849Z,99606.28
2022-09-20T20:38:28.887Z,99597.19
2022-09-20T20:41:31.919Z,99590.59
2022-09-20T20:44:37.785Z,99603.19
2022-09-20T20:47:44.092Z,99610.31
2022-09-20T20:50:45.839Z,99613.81
2022-09-20T20:53:52.926Z,99612.84
2022-09-20T20:56:54.673Z,99614.13
2022-09-20T20:59:56.400Z,99617.06
2022-09-20T21:02:58.708Z,99621.00
2022-09-20T21:06:00.446Z,99618.06
2022-09-20T21:09:04.356Z,99622.81
2022-09-20T21:12:06.391Z,99619.19
2022-09-20T21:15:08.480Z,99623.97
2022-09-20T21:18:10.427Z,99621.31
2022-09-20T21:21:33.539Z,99622.56
2022-09-20T21:24:35.191Z,99619.53
2022-09-20T21:27:37.124Z,99623.72
2022-09-20T21:30:38.828Z,99619.25
2022-09-20T21:33:42.504Z,99629.28
2022-09-20T21:36:44.958Z,99628.72
2022-09-20T21:39:46.962Z,99634.19
2022-09-20T21:42:48.640Z,99642.44
2022-09-20T21:45:50.647Z,99650.56
2022-09-20T21:48:52.399Z,99652.00
2022-09-20T21:51:54.231Z,99652.81
2022-09-20T21:54:55.972Z,99652.84
2022-09-20T21:57:57.868Z,99656.53
2022-09-20T22:01:26.821Z,99654.84
2022-09-20T22:04:29.192Z,99657.38
2022-09-20T22:07:30.860Z,99660.75
2022-09-20T22:10:32.758Z,99659.59
2022-09-20T22:13:35.357Z,99653.75
2022-09-20T22:16:38.880Z,99652.22
2022-09-20T22:19:40.564Z,99651.81
2022-09-20T22:22:42.352Z,99655.03
2022-09-20T22:25:44.124Z,99658.94
2022-09-20T22:28:45.821Z,99662.31
2022-09-20T22:31:50.121Z,99655.03
2022-09-20T22:34:51.848Z,99663.66
2022-09-20T22:37:53.789Z,99664.97
2022-09-20T22:40:57.354Z,99668.84
2022-09-20T22:43:59.305Z,99663.53
2022-09-20T22:47:00.964Z,99662.00
2022-09-20T22:50:02.774Z,99663.25
2022-09-20T22:53:04.490Z,99658.50
2022-09-20T22:56:11.855Z,99662.16
2022-09-20T22:59:14.843Z,99665.50
2022-09-20T23:02:16.537Z,99675.00
2022-09-20T23:05:18.225Z,99673.91
2022-09-20T23:08:22.439Z,99675.00
2022-09-20T23:11:24.940Z,99677.38
2022-09-20T23:14:26.872Z,99676.41
2022-09-20T23:17:28.529Z,99676.13
2022-09-20T23:20:30.320Z,99673.72
2022-09-20T23:23:32.165Z,99672.22
2022-09-20T23:26:36.763Z,99671.63
2022-09-20T23:29:38.508Z,99677.63
2022-09-20T23:32:40.781Z,99675.00
2022-09-20T23:35:46.463Z,99673.06
2022-09-20T23:38:48.904Z,99680.44
2022-09-20T23:41:51.451Z,99676.69
2022-09-20T23:44:53.280Z,99676.94
2022-09-20T23:47:54.961Z,99681.16
2022-09-20T23:50:56.695Z,99680.84
2022-09-20T23:53:58.712Z,99680.59
2022-09-20T23:57:00.455Z,99683.25
